Terminal Aerodrome Forecast
Issued by NWS La Crosse, WI

Home | Current Version | Previous Version | Text Only | Print | Product List | Glossary On
Versions: 1 2 3 4 5 6 7 8 9 10 11 12 13 14 15 16 17 18 19 20 21 22 23 24 25 26 27 28 29 30 31 32 33 34 35 36 37 38 39
000
FTUS43 KARX 010520
TAFLSE
TAF
KLSE 010520Z 0106/0206 13004KT P6SM SKC
     FM010900 13004KT P6SM BCFG SCT004
      TEMPO 0110/0112 3/4SM BR BKN004
     FM011300 22004KT P6SM SCT045
     FM012200 27005KT P6SM VCTS BKN050CB
     FM020300 VRB03KT P6SM SCT050=

USA.gov is the U.S. government's official web portal to all federal, state and local government web resources and services.